Time;durP1;ratioP1;P1;durP2;ratioP2;P2;SDS_P1;SDS_P2;PMS_P1;PMS_P2;Temp;Humidity;BMP_temperature;BMP_pressure;BME280_temperature;BME280_humidity;BME280_pressure;Samples;Min_cycle;Max_cycle;Signal;HPM_P1;HPM_P2
2023/08/24 00:01:46;;;;;;;;;;;;;;;18.16;80.83;101740.38;5028620;28;1551;-76
2023/08/24 00:04:11;;;;;;;;;;;;;;;18.15;80.88;101746.63;5016759;28;1209;-76
2023/08/24 00:06:37;;;;;;;;;;;;;;;18.11;80.88;101746.09;5022443;28;1535;-76
2023/08/24 00:09:04;;;;;;;;;;;;;;;18.05;81.16;101744.88;5023500;28;1382;-75
2023/08/24 00:11:30;;;;;;;;;;;;;;;18.02;81.23;101739.97;5023333;28;1656;-76
2023/08/24 00:13:55;;;;;;;;;;;;;;;18.02;81.34;101729.47;5018099;28;1431;-76
2023/08/24 00:16:21;;;;;;;;;;;;;;;17.99;81.36;101719.25;5032716;28;1411;-76
2023/08/24 00:18:46;;;;;;;;;;;;;;;17.99;81.31;101715.78;5033052;28;1965;-76
2023/08/24 00:21:13;;;;;;;;;;;;;;;17.95;81.80;101722.31;5037037;28;1447;-76
2023/08/24 00:23:38;;;;;;;;;;;;;;;17.92;81.88;101726.09;5038367;28;1194;-75
2023/08/24 00:26:03;;;;;;;;;;;;;;;17.92;81.92;101723.47;5014530;28;1218;-75
2023/08/24 00:28:29;;;;;;;;;;;;;;;17.91;81.81;101721.81;5019007;28;1228;-74
2023/08/24 00:30:54;;;;;;;;;;;;;;;17.88;82.13;101727.34;5015618;28;1273;-76
2023/08/24 00:33:19;;;;;;;;;;;;;;;17.87;82.09;101736.22;5030110;28;1170;-76
2023/08/24 00:35:45;;;;;;;;;;;;;;;17.84;82.39;101739.16;5030879;28;1230;-75
2023/08/24 00:38:10;;;;;;;;;;;;;;;17.84;82.54;101731.28;5039177;28;1961;-76
2023/08/24 00:40:35;;;;;;;;;;;;;;;17.85;82.64;101735.53;5028829;28;1609;-76
2023/08/24 00:43:00;;;;;;;;;;;;;;;17.84;82.58;101736.53;5010263;28;1686;-76
2023/08/24 00:45:26;;;;;;;;;;;;;;;17.83;82.72;101732.22;5022386;28;1236;-75
2023/08/24 00:47:51;;;;;;;;;;;;;;;17.84;83.03;101735.69;5024995;28;1347;-76
2023/08/24 00:50:17;;;;;;;;;;;;;;;17.84;82.98;101731.28;5030495;28;1251;-76
2023/08/24 00:52:43;;;;;;;;;;;;;;;17.87;83.33;101724.88;5019273;28;1515;-76
2023/08/24 00:55:09;;;;;;;;;;;;;;;17.86;83.33;101729.31;5032056;28;1193;-76
2023/08/24 00:57:35;;;;;;;;;;;;;;;17.82;83.28;101720.09;5026071;28;1251;-76
2023/08/24 01:00:02;;;;;;;;;;;;;;;17.82;83.32;101727.97;5019250;28;1894;-75
2023/08/24 01:02:28;;;;;;;;;;;;;;;17.80;83.09;101724.66;5027914;28;1229;-76
2023/08/24 01:04:53;;;;;;;;;;;;;;;17.78;83.06;101710.88;5023905;28;1248;-77
2023/08/24 01:07:18;;;;;;;;;;;;;;;17.75;83.19;101716.41;5027713;28;1245;-76
2023/08/24 01:09:44;;;;;;;;;;;;;;;17.71;84.27;101720.28;5026513;28;1301;-76
2023/08/24 01:12:18;;;;;;;;;;;;;;;17.69;83.44;101717.00;5027297;28;1459;-76
2023/08/24 01:14:58;;;;;;;;;;;;;;;17.63;83.56;101717.59;5030122;28;1488;-77
2023/08/24 01:17:27;;;;;;;;;;;;;;;17.61;83.81;101706.44;5011849;28;1372;-76
2023/08/24 01:19:52;;;;;;;;;;;;;;;17.60;83.58;101715.25;5026909;28;1977;-76
2023/08/24 01:22:31;;;;;;;;;;;;;;;17.58;84.07;101704.09;5031873;28;1262;-76
2023/08/24 01:25:08;;;;;;;;;;;;;;;17.55;83.97;101701.75;5031524;28;983;-76
2023/08/24 01:27:34;;;;;;;;;;;;;;;17.54;84.38;101698.31;5040796;28;1142;-76
2023/08/24 01:30:00;;;;;;;;;;;;;;;17.51;84.22;101694.19;5036137;28;1073;-76
2023/08/24 01:32:26;;;;;;;;;;;;;;;17.49;84.84;101684.81;5038693;28;1114;-76
2023/08/24 01:34:51;;;;;;;;;;;;;;;17.46;84.55;101691.19;5016199;28;1252;-76
2023/08/24 01:37:16;;;;;;;;;;;;;;;17.47;84.86;101682.34;5029303;28;1530;-76
2023/08/24 01:39:56;;;;;;;;;;;;;;;17.47;85.30;101671.84;5031343;28;1964;-75
2023/08/24 01:42:25;;;;;;;;;;;;;;;17.47;85.21;101682.34;5026425;28;1208;-76
2023/08/24 01:44:56;;;;;;;;;;;;;;;17.49;85.59;101690.91;5031650;28;1075;-76
2023/08/24 01:47:21;;;;;;;;;;;;;;;17.46;85.77;101699.06;5013424;28;1265;-74
2023/08/24 01:49:47;;;;;;;;;;;;;;;17.47;85.41;101699.88;5013574;28;1404;-77
2023/08/24 01:52:12;;;;;;;;;;;;;;;17.48;84.93;101699.72;5024327;28;1232;-76
2023/08/24 01:54:37;;;;;;;;;;;;;;;17.51;85.61;101699.44;5021653;28;1280;-77
2023/08/24 01:57:04;;;;;;;;;;;;;;;17.50;85.81;101710.09;5032872;28;1218;-76
2023/08/24 01:59:29;;;;;;;;;;;;;;;17.51;85.84;101714.38;5021419;28;1893;-76
2023/08/24 02:01:54;;;;;;;;;;;;;;;17.52;85.66;101716.81;5028424;28;1288;-76
2023/08/24 02:04:20;;;;;;;;;;;;;;;17.56;85.77;101727.03;5025081;28;1258;-76
2023/08/24 02:06:45;;;;;;;;;;;;;;;17.57;85.38;101728.69;5020362;28;2039;-77
2023/08/24 02:09:10;;;;;;;;;;;;;;;17.55;85.34;101714.88;5004564;28;1283;-79
2023/08/24 02:11:35;;;;;;;;;;;;;;;17.56;85.67;101704.25;5023252;28;1154;-76
2023/08/24 02:14:00;;;;;;;;;;;;;;;17.59;85.98;101701.31;5020921;28;1109;-78
2023/08/24 02:16:26;;;;;;;;;;;;;;;17.62;86.68;101705.44;5024933;28;1312;-77
2023/08/24 02:18:51;;;;;;;;;;;;;;;17.61;86.02;101709.06;5027688;28;1902;-78
2023/08/24 02:21:16;;;;;;;;;;;;;;;17.61;86.29;101709.88;5023586;28;1013;-79
2023/08/24 02:23:41;;;;;;;;;;;;;;;17.61;86.59;101703.81;5021352;28;1169;-79
2023/08/24 02:26:07;;;;;;;;;;;;;;;17.62;86.93;101710.69;5020350;28;1141;-78
2023/08/24 02:28:32;;;;;;;;;;;;;;;17.63;86.58;101717.59;5018673;28;1253;-77
2023/08/24 02:31:01;;;;;;;;;;;;;;;17.65;86.56;101705.13;5013386;28;1946;-79
2023/08/24 02:33:27;;;;;;;;;;;;;;;17.66;86.69;101691.03;5006587;28;1271;-78
2023/08/24 02:35:52;;;;;;;;;;;;;;;17.68;86.82;101686.47;5035965;28;1611;-77
2023/08/24 02:38:17;;;;;;;;;;;;;;;17.72;87.23;101679.97;5038824;28;1898;-77
2023/08/24 02:40:43;;;;;;;;;;;;;;;17.69;87.38;101693.38;5034594;28;1039;-76
2023/08/24 02:43:08;;;;;;;;;;;;;;;17.67;87.35;101687.47;5034768;28;1055;-77
2023/08/24 02:45:33;;;;;;;;;;;;;;;17.69;87.64;101680.25;5030672;28;1134;-78
2023/08/24 02:47:58;;;;;;;;;;;;;;;17.71;88.15;101678.28;5028078;28;1415;-77
2023/08/24 02:50:23;;;;;;;;;;;;;;;17.71;88.31;101678.28;5026686;28;1151;-78
2023/08/24 02:52:49;;;;;;;;;;;;;;;17.71;88.36;101662.56;5030914;28;1041;-77
2023/08/24 02:55:15;;;;;;;;;;;;;;;17.70;88.22;101653.84;5007233;28;1528;-76
2023/08/24 02:57:41;;;;;;;;;;;;;;;17.71;88.49;101646.81;5028242;28;1134;-77
2023/08/24 03:00:06;;;;;;;;;;;;;;;17.70;88.74;101624.19;5024356;28;1915;-76
2023/08/24 03:02:32;;;;;;;;;;;;;;;17.66;88.72;101613.19;5024689;28;1165;-76
2023/08/24 03:04:57;;;;;;;;;;;;;;;17.57;89.22;101581.78;5025130;28;1271;-76
2023/08/24 03:07:22;;;;;;;;;;;;;;;17.51;89.93;101578.78;5028867;28;1107;-77
2023/08/24 03:09:47;;;;;;;;;;;;;;;17.46;89.99;101580.22;5029467;28;1130;-77
2023/08/24 03:12:12;;;;;;;;;;;;;;;17.42;90.10;101578.88;5009754;28;1280;-77
2023/08/24 03:14:37;;;;;;;;;;;;;;;17.43;89.96;101581.38;5028070;28;1154;-75
2023/08/24 03:17:04;;;;;;;;;;;;;;;17.47;89.92;101587.09;5021576;28;1203;-75
2023/08/24 03:19:29;;;;;;;;;;;;;;;17.46;90.01;101577.59;5023545;28;1906;-76
2023/08/24 03:21:54;;;;;;;;;;;;;;;17.45;90.41;101571.53;5032717;28;1107;-75
2023/08/24 03:24:20;;;;;;;;;;;;;;;17.48;90.42;101560.72;5022013;28;1163;-74
2023/08/24 03:26:45;;;;;;;;;;;;;;;17.49;89.82;101559.78;5026278;28;1013;-75
2023/08/24 03:29:10;;;;;;;;;;;;;;;17.50;90.98;101556.16;5021279;28;1582;-76
2023/08/24 03:31:35;;;;;;;;;;;;;;;17.50;91.48;101556.16;5029813;28;1018;-76
2023/08/24 03:34:00;;;;;;;;;;;;;;;17.51;91.67;101557.81;5035800;28;1086;-75
2023/08/24 03:36:25;;;;;;;;;;;;;;;17.52;92.22;101554.19;5015652;28;1144;-76
2023/08/24 03:38:51;;;;;;;;;;;;;;;17.48;91.57;101552.03;5040935;28;1977;-74
2023/08/24 03:41:16;;;;;;;;;;;;;;;17.45;91.53;101568.91;5034221;28;1074;-76
2023/08/24 03:43:41;;;;;;;;;;;;;;;17.45;91.70;101568.09;5040647;28;1171;-75
2023/08/24 03:46:06;;;;;;;;;;;;;;;17.42;91.47;101571.00;5032209;28;1253;-76
2023/08/24 03:48:32;;;;;;;;;;;;;;;17.44;91.78;101572.50;5019088;28;1197;-76
2023/08/24 03:50:58;;;;;;;;;;;;;;;17.44;91.98;101567.28;5010792;28;1113;-75
2023/08/24 03:53:23;;;;;;;;;;;;;;;17.45;92.06;101563.66;5028796;28;1172;-76
2023/08/24 03:55:49;;;;;;;;;;;;;;;17.47;92.11;101556.47;5031290;28;1121;-76
2023/08/24 03:58:14;;;;;;;;;;;;;;;17.49;92.85;101559.78;5015597;28;1431;-75
2023/08/24 04:00:40;;;;;;;;;;;;;;;17.49;92.20;101554.53;5032975;28;1886;-73
2023/08/24 04:03:05;;;;;;;;;;;;;;;17.48;92.30;101547.59;5028929;28;1330;-74
2023/08/24 04:05:31;;;;;;;;;;;;;;;17.46;92.00;101554.81;5027418;28;1163;-76
2023/08/24 04:07:56;;;;;;;;;;;;;;;17.42;92.27;101553.47;5037690;28;1059;-76
2023/08/24 04:10:21;;;;;;;;;;;;;;;17.39;92.10;101543.28;5030762;28;1101;-77
2023/08/24 04:12:46;;;;;;;;;;;;;;;17.37;92.24;101529.50;5027561;28;1063;-74
2023/08/24 04:15:12;;;;;;;;;;;;;;;17.33;92.20;101533.41;5017422;28;1297;-75
2023/08/24 04:17:37;;;;;;;;;;;;;;;17.32;92.58;101531.78;5020663;28;1475;-76
2023/08/24 04:20:06;;;;;;;;;;;;;;;17.28;93.19;101524.34;5032813;28;1982;-76
2023/08/24 04:22:31;;;;;;;;;;;;;;;17.28;93.08;101508.63;5025044;28;973;-76
2023/08/24 04:24:56;;;;;;;;;;;;;;;17.26;93.16;101514.00;5029893;28;1002;-73
2023/08/24 04:27:21;;;;;;;;;;;;;;;17.26;92.99;101511.38;5022118;28;1090;-76
2023/08/24 04:29:47;;;;;;;;;;;;;;;17.25;93.77;101520.22;5007288;28;1279;-75
2023/08/24 04:32:12;;;;;;;;;;;;;;;17.24;93.72;101516.78;5016401;28;1070;-76
2023/08/24 04:34:37;;;;;;;;;;;;;;;17.22;93.71;101516.13;5015326;28;1249;-73
2023/08/24 04:37:02;;;;;;;;;;;;;;;17.20;93.64;101512.84;5015235;28;1255;-76
2023/08/24 04:39:29;;;;;;;;;;;;;;;17.21;93.68;101524.16;5018009;28;1992;-75
2023/08/24 04:41:54;;;;;;;;;;;;;;;17.21;93.59;101532.00;5011618;28;1315;-76
2023/08/24 04:44:19;;;;;;;;;;;;;;;17.19;93.63;101523.44;5033985;28;1270;-76
2023/08/24 04:46:44;;;;;;;;;;;;;;;17.17;94.27;101522.78;5041889;28;1301;-75
2023/08/24 04:49:10;;;;;;;;;;;;;;;17.20;94.15;101527.72;5031985;28;1041;-74
2023/08/24 04:51:35;;;;;;;;;;;;;;;17.21;94.20;101529.38;5037477;28;1074;-76
2023/08/24 04:54:00;;;;;;;;;;;;;;;17.22;94.57;101525.78;5034784;28;1074;-76
2023/08/24 04:56:25;;;;;;;;;;;;;;;17.24;94.30;101529.06;5021340;28;1230;-76
2023/08/24 04:58:57;;;;;;;;;;;;;;;17.26;94.45;101524.47;5032279;28;1898;-76
2023/08/24 05:01:22;;;;;;;;;;;;;;;17.27;94.69;101528.78;5016824;28;1254;-76
2023/08/24 05:03:48;;;;;;;;;;;;;;;17.28;94.60;101535.66;5033934;28;1328;-76
2023/08/24 05:06:13;;;;;;;;;;;;;;;17.25;94.62;101535.94;5030912;28;1159;-74
2023/08/24 05:08:38;;;;;;;;;;;;;;;17.23;94.71;101535.28;5030393;28;1305;-75
2023/08/24 05:11:22;;;;;;;;;;;;;;;17.24;94.68;101534.31;5031118;28;1013;-76
2023/08/24 05:13:47;;;;;;;;;;;;;;;17.22;94.74;101533.66;5033087;28;1195;-75
2023/08/24 05:16:13;;;;;;;;;;;;;;;17.25;94.74;101535.94;5010736;28;1215;-75
2023/08/24 05:18:38;;;;;;;;;;;;;;;17.27;95.01;101528.78;5029302;28;1905;-76
2023/08/24 05:21:03;;;;;;;;;;;;;;;17.28;95.50;101525.19;5023451;28;1321;-75
2023/08/24 05:23:32;;;;;;;;;;;;;;;17.27;95.26;101523.53;5024828;28;1152;-76
2023/08/24 05:25:58;;;;;;;;;;;;;;;17.25;95.35;101530.72;5019337;28;1175;-75
2023/08/24 05:28:27;;;;;;;;;;;;;;;17.28;95.23;101529.59;5032285;28;1171;-75
2023/08/24 05:30:52;;;;;;;;;;;;;;;17.29;95.27;101528.63;5021759;28;1131;-76
2023/08/24 05:33:17;;;;;;;;;;;;;;;17.35;95.63;101530.63;5028807;28;1090;-76
2023/08/24 05:35:43;;;;;;;;;;;;;;;17.38;95.88;101528.53;5019904;28;1049;-76
2023/08/24 05:38:08;;;;;;;;;;;;;;;17.42;95.72;101524.63;5021423;28;1193;-75
2023/08/24 05:40:34;;;;;;;;;;;;;;;17.45;95.59;101519.06;5004735;28;1886;-75
2023/08/24 05:42:59;;;;;;;;;;;;;;;17.48;95.75;101516.13;5015733;28;1113;-76
2023/08/24 05:45:24;;;;;;;;;;;;;;;17.52;95.85;101511.41;5024219;28;1434;-76
2023/08/24 05:47:49;;;;;;;;;;;;;;;17.56;95.83;101511.94;5033049;28;993;-76
2023/08/24 05:50:15;;;;;;;;;;;;;;;17.59;96.21;101514.25;5036458;28;1321;-73
2023/08/24 05:52:40;;;;;;;;;;;;;;;17.60;96.16;101502.78;5031798;28;1074;-76
2023/08/24 05:55:05;;;;;;;;;;;;;;;17.61;96.33;101500.00;5031249;28;1285;-76
2023/08/24 05:57:30;;;;;;;;;;;;;;;17.62;96.16;101490.34;5032163;28;1106;-77
2023/08/24 05:59:56;;;;;;;;;;;;;;;17.63;96.66;101486.72;5035358;28;1902;-79
2023/08/24 06:02:21;;;;;;;;;;;;;;;17.65;96.61;101484.75;5016118;28;1168;-77
2023/08/24 06:04:46;;;;;;;;;;;;;;;17.69;96.30;101483.50;5035345;28;1206;-79
2023/08/24 06:07:11;;;;;;;;;;;;;;;17.72;96.08;101476.16;5030744;28;1149;-78
2023/08/24 06:09:36;;;;;;;;;;;;;;;17.75;97.91;101469.78;5025438;28;1182;-79
2023/08/24 06:12:02;;;;;;;;;;;;;;;17.77;96.57;101466.00;5006379;28;1320;-79
2023/08/24 06:14:27;;;;;;;;;;;;;;;17.79;96.79;101460.63;5028947;28;1171;-79
2023/08/24 06:16:53;;;;;;;;;;;;;;;17.83;96.75;101451.44;5016958;28;1125;-78
2023/08/24 06:19:18;;;;;;;;;;;;;;;17.87;96.33;101447.53;5025214;28;1902;-75
2023/08/24 06:21:43;;;;;;;;;;;;;;;17.93;96.59;101449.53;5023904;28;1275;-79
2023/08/24 06:24:08;;;;;;;;;;;;;;;17.99;96.56;101441.00;5027507;28;1411;-79
2023/08/24 06:26:34;;;;;;;;;;;;;;;18.05;96.89;101442.19;5029509;28;1057;-79
2023/08/24 06:28:59;;;;;;;;;;;;;;;18.09;96.62;101446.13;5018797;28;1276;-79
2023/08/24 06:31:24;;;;;;;;;;;;;;;18.15;96.80;101455.19;5026392;28;1124;-79
2023/08/24 06:33:49;;;;;;;;;;;;;;;18.20;96.52;101458.16;5017450;28;1098;-79
2023/08/24 06:36:15;;;;;;;;;;;;;;;18.26;96.38;101462.75;5029907;28;1607;-80
2023/08/24 06:38:40;;;;;;;;;;;;;;;18.31;96.27;101468.38;5022599;28;1969;-79
2023/08/24 06:41:05;;;;;;;;;;;;;;;18.36;96.65;101463.47;5018736;28;1094;-80
2023/08/24 06:43:30;;;;;;;;;;;;;;;18.41;96.35;101466.44;5019198;28;1154;-79
2023/08/24 06:45:56;;;;;;;;;;;;;;;18.45;95.86;101472.97;5023605;28;1328;-79
2023/08/24 06:48:21;;;;;;;;;;;;;;;18.52;95.74;101460.88;5025934;28;1111;-78
2023/08/24 06:50:46;;;;;;;;;;;;;;;18.58;95.79;101454.97;5016945;28;1250;-79
2023/08/24 06:53:11;;;;;;;;;;;;;;;18.67;95.51;101454.97;5012818;28;1564;-80
2023/08/24 06:55:37;;;;;;;;;;;;;;;18.73;95.63;101454.34;5033461;28;1175;-80
2023/08/24 06:58:05;;;;;;;;;;;;;;;18.76;95.53;101456.66;5034636;28;1091;-80
2023/08/24 07:00:30;;;;;;;;;;;;;;;18.80;95.39;101465.84;5032475;28;1934;-79
2023/08/24 07:02:55;;;;;;;;;;;;;;;18.84;95.64;101470.63;5018955;28;1266;-78
2023/08/24 07:05:21;;;;;;;;;;;;;;;18.90;94.92;101466.50;5033682;28;1102;-77
2023/08/24 07:07:47;;;;;;;;;;;;;;;18.97;94.90;101456.16;5036492;28;1070;-80
2023/08/24 07:10:12;;;;;;;;;;;;;;;19.03;94.73;101451.06;5032552;28;1419;-79
2023/08/24 07:12:40;;;;;;;;;;;;;;;19.10;95.52;101436.28;5011378;28;1422;-79
2023/08/24 07:15:06;;;;;;;;;;;;;;;19.18;94.80;101432.00;5031808;28;1193;-79
2023/08/24 07:17:31;;;;;;;;;;;;;;;19.26;95.18;101434.59;5030876;28;1397;-78
2023/08/24 07:19:56;;;;;;;;;;;;;;;19.35;94.82;101438.88;5025450;28;1966;-79
2023/08/24 07:22:21;;;;;;;;;;;;;;;19.41;94.89;101417.16;5028068;28;1164;-80
2023/08/24 07:24:51;;;;;;;;;;;;;;;19.52;93.56;101419.41;5026991;28;1131;-79
2023/08/24 07:27:17;;;;;;;;;;;;;;;19.57;93.61;101417.09;5033530;28;950;-79
2023/08/24 07:29:42;;;;;;;;;;;;;;;19.66;93.15;101415.28;5024037;28;1156;-80
2023/08/24 07:32:07;;;;;;;;;;;;;;;19.71;92.36;101418.22;5027992;28;1058;-79
2023/08/24 07:34:32;;;;;;;;;;;;;;;19.78;92.54;101415.72;5021565;28;1051;-79
2023/08/24 07:36:58;;;;;;;;;;;;;;;19.86;92.06;101418.34;5023258;28;1078;-79
2023/08/24 07:39:23;;;;;;;;;;;;;;;19.93;92.01;101414.03;5027354;28;1979;-79
2023/08/24 07:41:48;;;;;;;;;;;;;;;20.02;91.67;101415.63;5015839;28;1154;-78
2023/08/24 07:44:13;;;;;;;;;;;;;;;20.11;90.99;101422.47;5023586;28;1097;-79
2023/08/24 07:46:39;;;;;;;;;;;;;;;20.21;90.70;101419.63;5024746;28;1098;-79
2023/08/24 07:49:05;;;;;;;;;;;;;;;20.30;89.12;101415.97;5025192;28;1160;-80
2023/08/24 07:51:30;;;;;;;;;;;;;;;20.38;88.79;101415.09;5026933;28;1422;-79
2023/08/24 07:53:55;;;;;;;;;;;;;;;20.48;88.44;101421.00;5022009;28;1194;-79
2023/08/24 07:56:22;;;;;;;;;;;;;;;20.56;88.17;101428.81;5024176;28;1106;-79
2023/08/24 07:58:48;;;;;;;;;;;;;;;20.68;88.13;101432.69;5014649;28;1929;-79
2023/08/24 08:01:13;;;;;;;;;;;;;;;20.78;87.79;101443.00;5025424;28;1197;-79
2023/08/24 08:03:38;;;;;;;;;;;;;;;20.86;87.10;101434.19;5031945;28;1128;-78
2023/08/24 08:06:04;;;;;;;;;;;;;;;20.93;86.56;101432.47;5024762;28;1107;-78
2023/08/24 08:08:29;;;;;;;;;;;;;;;21.00;84.73;101441.34;5025249;28;1059;-79
2023/08/24 08:11:01;;;;;;;;;;;;;;;21.05;85.80;101441.63;5033192;28;1205;-79
2023/08/24 08:13:27;;;;;;;;;;;;;;;21.14;85.12;101443.16;5031990;28;1287;-79
2023/08/24 08:15:52;;;;;;;;;;;;;;;21.21;85.33;101433.53;5039079;28;1094;-79
2023/08/24 08:18:17;;;;;;;;;;;;;;;21.32;85.50;101437.56;5035996;28;1180;-79
2023/08/24 08:20:43;;;;;;;;;;;;;;;21.44;84.78;101432.66;5033107;28;1898;-78
2023/08/24 08:23:08;;;;;;;;;;;;;;;21.54;84.64;101430.59;5027410;28;1118;-79
2023/08/24 08:25:33;;;;;;;;;;;;;;;21.65;83.85;101430.13;5028264;28;1376;-77
2023/08/24 08:27:58;;;;;;;;;;;;;;;21.77;84.11;101425.19;5031318;28;1360;-79
2023/08/24 08:30:23;;;;;;;;;;;;;;;21.88;84.15;101439.75;5032005;28;1415;-81
2023/08/24 08:32:50;;;;;;;;;;;;;;;21.96;82.95;101431.72;5021825;28;1069;-82
2023/08/24 08:35:16;;;;;;;;;;;;;;;22.05;82.98;101430.63;5024558;28;1142;-81
2023/08/24 08:37:41;;;;;;;;;;;;;;;22.13;83.21;101419.94;5029780;28;1072;-81
2023/08/24 08:40:09;;;;;;;;;;;;;;;22.17;82.51;101413.31;5026709;28;1961;-80
2023/08/24 08:42:35;;;;;;;;;;;;;;;22.22;82.33;101410.91;5034266;28;2193;-79
2023/08/24 08:45:02;;;;;;;;;;;;;;;22.22;81.34;101395.06;5030547;28;1360;-81
2023/08/24 08:47:28;;;;;;;;;;;;;;;22.26;81.62;101385.75;5022886;28;1475;-80
2023/08/24 08:49:54;;;;;;;;;;;;;;;22.32;81.20;101373.63;5028118;28;1084;-81
2023/08/24 08:52:20;;;;;;;;;;;;;;;22.40;80.31;101370.84;5022707;28;1169;-80
2023/08/24 08:54:45;;;;;;;;;;;;;;;22.37;79.83;101365.13;5023694;28;1142;-82
2023/08/24 08:57:10;;;;;;;;;;;;;;;22.35;78.46;101362.66;5023900;28;1050;-78
2023/08/24 08:59:36;;;;;;;;;;;;;;;22.41;79.55;101350.50;5026568;28;1906;-81
2023/08/24 09:02:02;;;;;;;;;;;;;;;22.43;78.56;101349.31;5026510;28;1166;-81
2023/08/24 09:04:29;;;;;;;;;;;;;;;22.50;79.68;101334.34;5005339;28;1192;-82
2023/08/24 09:06:56;;;;;;;;;;;;;;;22.58;78.80;101330.72;5024135;28;1241;-81
2023/08/24 09:09:22;;;;;;;;;;;;;;;22.58;78.46;101325.44;5024779;28;1130;-79
2023/08/24 09:11:48;;;;;;;;;;;;;;;22.57;77.75;101323.81;5030959;28;1074;-81
2023/08/24 09:14:13;;;;;;;;;;;;;;;22.59;78.09;101321.78;5032633;28;1083;-78
2023/08/24 09:16:39;;;;;;;;;;;;;;;22.67;78.46;101319.00;5010636;28;1283;-82
2023/08/24 09:19:05;;;;;;;;;;;;;;;22.73;78.97;101317.41;5035792;28;1869;-81
2023/08/24 09:21:30;;;;;;;;;;;;;;;22.84;77.67;101313.41;5029289;28;1299;-81
2023/08/24 09:23:56;;;;;;;;;;;;;;;22.86;78.05;101306.09;5030895;28;986;-81
2023/08/24 09:26:30;;;;;;;;;;;;;;;22.89;77.48;101300.47;5037495;28;1126;-80
2023/08/24 09:28:56;;;;;;;;;;;;;;;22.93;77.23;101302.50;5026673;28;979;-81
2023/08/24 09:31:22;;;;;;;;;;;;;;;22.96;77.09;101280.16;5030424;28;1131;-81
2023/08/24 09:33:47;;;;;;;;;;;;;;;23.03;77.15;101276.50;5023011;28;1055;-81
2023/08/24 09:36:14;;;;;;;;;;;;;;;23.11;77.00;101272.91;5013473;28;1508;-80
2023/08/24 09:38:45;;;;;;;;;;;;;;;23.13;76.75;101262.13;5029694;28;1913;-80
2023/08/24 09:41:10;;;;;;;;;;;;;;;23.18;76.94;101268.44;5023487;28;1094;-78
2023/08/24 09:43:35;;;;;;;;;;;;;;;23.24;76.96;101262.38;5025324;28;1103;-81
2023/08/24 09:46:02;;;;;;;;;;;;;;;23.29;75.90;101264.44;5026519;28;1165;-81
2023/08/24 09:48:28;;;;;;;;;;;;;;;23.31;75.18;101265.84;5024746;28;1225;-81
2023/08/24 09:50:54;;;;;;;;;;;;;;;23.36;75.94;101281.16;5024473;28;1064;-81
2023/08/24 09:53:22;;;;;;;;;;;;;;;23.46;75.79;101289.53;5028238;28;1191;-81
2023/08/24 09:56:07;;;;;;;;;;;;;;;23.59;75.75;101304.63;5026477;28;927;-80
2023/08/24 09:58:34;;;;;;;;;;;;;;;23.65;75.30;101322.41;5027574;28;1902;-80
2023/08/24 10:01:01;;;;;;;;;;;;;;;23.67;75.32;101325.66;5009695;28;1169;-81
2023/08/24 10:03:27;;;;;;;;;;;;;;;23.67;75.45;101320.38;5026005;28;1114;-81
2023/08/24 10:06:00;;;;;;;;;;;;;;;23.67;75.36;101319.56;5020046;28;1150;-81
2023/08/24 10:08:42;;;;;;;;;;;;;;;23.62;75.17;101328.09;5024086;28;1226;-79
2023/08/24 10:11:10;;;;;;;;;;;;;;;23.57;74.82;101325.22;5006949;28;1241;-80
2023/08/24 10:13:48;;;;;;;;;;;;;;;23.57;75.53;101325.22;5017905;28;1186;-82
2023/08/24 10:16:13;;;;;;;;;;;;;;;23.53;75.32;101318.69;5035784;28;1107;-81
2023/08/24 10:18:39;;;;;;;;;;;;;;;23.49;75.66;101322.72;5031273;28;1959;-82
2023/08/24 10:21:05;;;;;;;;;;;;;;;23.46;75.72;101318.66;5029296;28;1238;-82
2023/08/24 10:23:30;;;;;;;;;;;;;;;23.45;75.68;101324.13;5029694;28;1175;-80
2023/08/24 10:25:55;;;;;;;;;;;;;;;23.45;75.74;101316.19;5031296;28;1218;-81
2023/08/24 10:28:23;;;;;;;;;;;;;;;23.46;75.94;101317.84;5021096;28;1181;-81
2023/08/24 10:30:49;;;;;;;;;;;;;;;23.48;75.84;101321.09;5030460;28;1344;-80
2023/08/24 10:33:15;;;;;;;;;;;;;;;23.49;75.69;101318.25;5036516;28;1110;-81
2023/08/24 10:35:40;;;;;;;;;;;;;;;23.50;75.69;101316.41;5033723;28;1075;-79
2023/08/24 10:38:06;;;;;;;;;;;;;;;23.52;75.58;101306.47;5037949;28;975;-81
2023/08/24 10:40:35;;;;;;;;;;;;;;;23.55;75.59;101316.63;5024935;28;1965;-81
2023/08/24 10:43:07;;;;;;;;;;;;;;;23.55;75.49;101311.34;5025177;28;1123;-81
2023/08/24 10:45:51;;;;;;;;;;;;;;;23.58;75.55;101303.00;5032676;28;1154;-80
2023/08/24 10:48:16;;;;;;;;;;;;;;;23.59;75.44;101302.81;5024284;28;1117;-82
2023/08/24 10:50:41;;;;;;;;;;;;;;;23.61;75.50;101299.94;5030854;28;1351;-81
2023/08/24 10:53:10;;;;;;;;;;;;;;;23.61;75.48;101289.34;5030386;28;1057;-81
2023/08/24 10:55:37;;;;;;;;;;;;;;;23.62;75.70;101288.38;5024679;28;1336;-80
2023/08/24 10:58:02;;;;;;;;;;;;;;;23.64;75.70;101293.50;5030193;28;1144;-80
2023/08/24 11:00:29;;;;;;;;;;;;;;;23.65;75.79;101287.97;5020667;28;1988;-80
2023/08/24 11:02:55;;;;;;;;;;;;;;;23.66;75.79;101292.25;5020137;28;1394;-80
2023/08/24 11:05:54;;;;;;;;;;;;;;;23.66;75.86;101302.03;5023633;28;1579;-80
2023/08/24 11:08:12;;;;;;;;;;;;;;;23.65;75.93;101306.53;5019132;28;1257;-79
2023/08/24 11:10:40;;;;;;;;;;;;;;;23.64;76.16;101304.91;5021796;28;1200;-79
2023/08/24 11:13:06;;;;;;;;;;;;;;;23.65;76.14;101295.94;5021190;28;1152;-79
2023/08/24 11:15:37;;;;;;;;;;;;;;;23.70;76.37;101298.78;5022933;28;1340;-79
2023/08/24 11:18:12;;;;;;;;;;;;;;;23.71;76.17;101295.13;5021467;28;1090;-79
2023/08/24 11:20:37;;;;;;;;;;;;;;;23.73;76.32;101282.50;5013223;28;1902;-81
2023/08/24 11:23:02;;;;;;;;;;;;;;;23.77;76.10;101264.38;5032547;28;1236;-78
2023/08/24 11:25:28;;;;;;;;;;;;;;;23.74;76.45;101246.22;5039796;28;1001;-78
2023/08/24 11:27:53;;;;;;;;;;;;;;;23.75;76.67;101251.34;5039126;28;1190;-79
2023/08/24 11:30:19;;;;;;;;;;;;;;;23.77;76.60;101241.34;5037002;28;1726;-79
2023/08/24 11:32:45;;;;;;;;;;;;;;;23.78;77.03;101237.69;5033008;28;1305;-80
2023/08/24 11:35:11;;;;;;;;;;;;;;;23.79;76.96;101235.84;5032092;28;1127;-79
2023/08/24 11:37:36;;;;;;;;;;;;;;;23.82;77.19;101238.09;5031514;28;972;-80
2023/08/24 11:40:02;;;;;;;;;;;;;;;23.85;77.08;101238.50;5028909;28;1960;-80
2023/08/24 11:42:35;;;;;;;;;;;;;;;23.91;76.95;101238.69;5032866;28;1082;-80
2023/08/24 11:45:00;;;;;;;;;;;;;;;23.95;76.93;101237.28;5032179;28;1139;-80
2023/08/24 11:47:25;;;;;;;;;;;;;;;23.97;76.68;101229.94;5036347;28;1118;-80
2023/08/24 11:49:50;;;;;;;;;;;;;;;24.00;76.61;101219.75;5034722;28;1117;-80
2023/08/24 11:52:17;;;;;;;;;;;;;;;24.05;77.23;101211.19;5026331;28;1154;-80
2023/08/24 11:54:42;;;;;;;;;;;;;;;24.07;76.77;101209.16;5032916;28;1098;-80
2023/08/24 11:57:10;;;;;;;;;;;;;;;24.06;76.91;101188.97;5030455;28;1268;-80
2023/08/24 11:59:36;;;;;;;;;;;;;;;24.07;76.73;101177.34;5009777;28;1946;-80
2023/08/24 12:02:02;;;;;;;;;;;;;;;24.07;76.58;101172.88;5032037;28;1155;-80
2023/08/24 12:04:27;;;;;;;;;;;;;;;24.07;77.02;101166.75;5027037;28;1518;-77
2023/08/24 12:06:52;;;;;;;;;;;;;;;24.09;77.03;101162.09;5032089;28;1209;-79
2023/08/24 12:09:17;;;;;;;;;;;;;;;24.09;77.07;101162.09;5029619;28;1185;-79
2023/08/24 12:11:43;;;;;;;;;;;;;;;24.17;77.30;101161.84;5028109;28;1129;-78
2023/08/24 12:14:16;;;;;;;;;;;;;;;24.19;77.35;101164.28;5024768;28;1115;-79
2023/08/24 12:16:41;;;;;;;;;;;;;;;24.22;77.47;101159.41;5021190;28;1221;-79
2023/08/24 12:19:07;;;;;;;;;;;;;;;24.27;77.00;101146.34;5028140;28;1981;-80
2023/08/24 12:21:32;;;;;;;;;;;;;;;24.28;76.67;101142.66;5006615;28;1228;-79
2023/08/24 12:23:58;;;;;;;;;;;;;;;24.28;77.04;101142.66;5024311;28;1122;-80
2023/08/24 12:26:24;;;;;;;;;;;;;;;24.29;76.83;101139.00;5024147;28;1369;-79
2023/08/24 12:28:53;;;;;;;;;;;;;;;24.28;77.17;101136.56;5023327;28;1173;-80
2023/08/24 12:31:18;;;;;;;;;;;;;;;24.27;77.34;101130.44;5032564;28;1166;-79
2023/08/24 12:33:44;;;;;;;;;;;;;;;24.29;77.67;101136.34;5034609;28;1157;-79
2023/08/24 12:36:10;;;;;;;;;;;;;;;24.34;77.53;101131.25;5034340;28;1243;-79
2023/08/24 12:38:35;;;;;;;;;;;;;;;24.40;76.56;101115.53;5036670;28;1349;-79
2023/08/24 12:41:01;;;;;;;;;;;;;;;24.43;77.04;101101.84;5032177;28;1902;-79
2023/08/24 12:43:26;;;;;;;;;;;;;;;24.50;77.06;101082.25;5036369;28;1363;-79